createdAt,value
2018-05-14T00:00:08.254Z,101098.66
2018-05-14T00:01:12.704Z,101100.68
2018-05-14T00:02:16.942Z,101094.61
2018-05-14T00:03:21.071Z,101100.19
2018-05-14T00:04:26.002Z,101092.16
2018-05-14T00:05:30.143Z,101097.94
2018-05-14T00:06:34.638Z,101091.98
2018-05-14T00:07:39.682Z,101096.92
2018-05-14T00:08:43.818Z,101092.39
2018-05-14T00:09:47.953Z,101088.17
2018-05-14T00:10:52.098Z,101092.13
2018-05-14T00:11:56.303Z,101089.91
2018-05-14T00:13:00.766Z,101091.22
2018-05-14T00:14:04.896Z,101087.26
2018-05-14T00:15:09.248Z,101088.50
2018-05-14T00:16:13.446Z,101089.30
2018-05-14T00:17:17.567Z,101095.19
2018-05-14T00:18:21.756Z,101089.84
2018-05-14T00:19:26.231Z,101091.11
2018-05-14T00:20:30.419Z,101091.92
2018-05-14T00:21:35.080Z,101085.77
2018-05-14T00:22:39.176Z,101091.48
2018-05-14T00:23:44.321Z,101086.61
2018-05-14T00:24:48.452Z,101087.98
2018-05-14T00:25:53.657Z,101088.60
2018-05-14T00:26:57.794Z,101094.55
2018-05-14T00:28:02.072Z,101089.28
2018-05-14T00:29:06.185Z,101088.15
2018-05-14T00:30:12.572Z,101085.63
2018-05-14T00:31:16.686Z,101094.59
2018-05-14T00:32:20.791Z,101094.63
2018-05-14T00:33:25.058Z,101094.70
2018-05-14T00:34:29.237Z,101097.39
2018-05-14T00:35:33.456Z,101094.70
2018-05-14T00:36:37.575Z,101089.09
2018-05-14T00:37:41.697Z,101092.05
2018-05-14T00:38:46.228Z,101094.00
2018-05-14T00:39:50.362Z,101098.90
2018-05-14T00:40:54.486Z,101101.19
2018-05-14T00:41:58.710Z,101104.44
2018-05-14T00:43:02.837Z,101099.98
2018-05-14T00:44:06.948Z,101102.73
2018-05-14T00:45:13.664Z,101096.78
2018-05-14T00:46:18.138Z,101100.55
2018-05-14T00:47:22.283Z,101102.77
2018-05-14T00:48:26.399Z,101098.03
2018-05-14T00:49:30.667Z,101095.31
2018-05-14T00:50:34.760Z,101096.28
2018-05-14T00:51:39.408Z,101094.97
2018-05-14T00:52:44.392Z,101098.23
2018-05-14T00:53:48.622Z,101095.00
2018-05-14T00:55:01.521Z,101099.47
2018-05-14T00:56:05.828Z,101094.36
2018-05-14T00:57:09.960Z,101093.19
2018-05-14T00:58:14.538Z,101095.37
2018-05-14T00:59:18.664Z,101100.34
2018-05-14T01:00:23.288Z,101096.74
2018-05-14T01:01:27.420Z,101098.19
2018-05-14T01:02:31.532Z,101093.11
2018-05-14T01:03:35.654Z,101092.48
2018-05-14T01:04:40.477Z,101095.71
2018-05-14T01:05:44.691Z,101099.17
2018-05-14T01:06:48.856Z,101098.58
2018-05-14T01:07:52.998Z,101102.63
2018-05-14T01:08:57.150Z,101100.48
2018-05-14T01:10:01.262Z,101100.89
2018-05-14T01:11:05.730Z,101096.36
2018-05-14T01:12:09.823Z,101098.61
2018-05-14T01:13:14.044Z,101103.20
2018-05-14T01:14:18.186Z,101098.23
2018-05-14T01:15:22.540Z,101100.09
2018-05-14T01:16:26.732Z,101099.81
2018-05-14T01:17:31.354Z,101097.83
2018-05-14T01:18:36.350Z,101101.80
2018-05-14T01:19:41.784Z,101099.61
2018-05-14T01:20:46.328Z,101099.20
2018-05-14T01:21:50.736Z,101098.30
2018-05-14T01:22:55.332Z,101099.67
2018-05-14T01:23:59.736Z,101101.20
2018-05-14T01:25:03.962Z,101098.40
2018-05-14T01:26:08.294Z,101098.16
2018-05-14T01:27:12.438Z,101101.83
2018-05-14T01:28:16.677Z,101102.37
2018-05-14T01:29:20.817Z,101099.50
2018-05-14T01:30:25.364Z,101098.47
2018-05-14T01:31:30.503Z,101101.52
2018-05-14T01:32:35.022Z,101098.34
2018-05-14T01:33:39.166Z,101095.84
2018-05-14T01:34:44.286Z,101100.80
2018-05-14T01:35:48.410Z,101100.89
2018-05-14T01:36:52.512Z,101105.20
2018-05-14T01:37:56.760Z,101104.48
2018-05-14T01:39:00.920Z,101099.55
2018-05-14T01:40:05.142Z,101099.55
2018-05-14T01:41:09.312Z,101105.59
2018-05-14T01:42:13.428Z,101108.46
2018-05-14T01:43:18.206Z,101105.14
2018-05-14T01:44:22.418Z,101097.65
2018-05-14T01:45:26.830Z,101103.63
2018-05-14T01:46:30.971Z,101112.03
2018-05-14T01:48:40.224Z,101111.87
2018-05-14T01:49:45.086Z,101106.98
2018-05-14T01:50:49.749Z,101107.66
2018-05-14T01:51:53.864Z,101109.11
2018-05-14T01:52:58.084Z,101104.36
2018-05-14T01:54:02.284Z,101110.19
2018-05-14T01:55:06.408Z,101102.05
2018-05-14T01:56:10.908Z,101107.05
2018-05-14T01:57:15.014Z,101108.84
2018-05-14T01:58:19.265Z,101105.44
2018-05-14T01:59:23.390Z,101103.75
2018-05-14T02:00:27.942Z,101106.57
2018-05-14T02:01:32.113Z,101114.53
2018-05-14T02:02:36.536Z,101107.88
2018-05-14T02:03:40.742Z,101112.41
2018-05-14T02:04:45.594Z,101113.83
2018-05-14T02:05:50.427Z,101113.62
2018-05-14T02:06:54.578Z,101112.02
2018-05-14T02:07:59.001Z,101111.55
2018-05-14T02:09:03.308Z,101115.58
2018-05-14T02:10:07.585Z,101119.16
2018-05-14T02:11:11.720Z,101122.28
2018-05-14T02:12:16.068Z,101119.05
2018-05-14T02:13:20.268Z,101118.73
2018-05-14T02:14:25.005Z,101120.06
2018-05-14T02:15:29.586Z,101116.48
2018-05-14T02:16:34.131Z,101118.80
2018-05-14T02:17:38.731Z,101120.34
2018-05-14T02:18:43.084Z,101120.10
2018-05-14T02:19:47.881Z,101119.25
2018-05-14T02:20:53.298Z,101122.89
2018-05-14T02:21:57.426Z,101125.66
2018-05-14T02:23:01.540Z,101120.41
2018-05-14T02:24:05.660Z,101119.53
2018-05-14T02:25:09.782Z,101119.17
2018-05-14T02:26:14.002Z,101121.83
2018-05-14T02:27:18.404Z,101123.20
2018-05-14T02:28:22.541Z,101120.08
2018-05-14T02:29:26.785Z,101120.52
2018-05-14T02:30:31.425Z,101118.66
2018-05-14T02:31:35.962Z,101114.72
2018-05-14T02:32:40.139Z,101113.66
2018-05-14T02:33:44.276Z,101115.37
2018-05-14T02:34:49.362Z,101114.63
2018-05-14T02:35:53.470Z,101119.61
2018-05-14T02:36:57.606Z,101121.41
2018-05-14T02:38:01.776Z,101119.15
2018-05-14T02:39:06.681Z,101126.61
2018-05-14T02:40:10.792Z,101120.10
2018-05-14T02:41:14.897Z,101121.00
2018-05-14T02:42:19.108Z,101123.33
2018-05-14T02:43:23.216Z,101126.53
2018-05-14T02:44:27.337Z,101123.55
2018-05-14T02:45:32.374Z,101131.28
2018-05-14T02:46:36.472Z,101126.88
2018-05-14T02:47:40.708Z,101125.23
2018-05-14T02:48:44.818Z,101128.30
2018-05-14T02:49:49.576Z,101124.61
2018-05-14T02:50:53.799Z,101127.77
2018-05-14T02:51:58.249Z,101132.69
2018-05-14T02:53:02.466Z,101132.34
2018-05-14T02:54:06.624Z,101126.62
2018-05-14T02:55:10.808Z,101131.23
2018-05-14T02:56:14.941Z,101130.84
2018-05-14T02:57:19.085Z,101129.25
2018-05-14T02:58:23.202Z,101131.44
2018-05-14T02:59:27.422Z,101129.70
2018-05-14T03:00:32.288Z,101127.16
2018-05-14T03:01:36.450Z,101133.70
2018-05-14T03:02:41.190Z,101131.05
2018-05-14T03:03:46.500Z,101125.33
2018-05-14T03:04:51.530Z,101127.08
2018-05-14T03:05:55.656Z,101126.11
2018-05-14T03:06:59.800Z,101125.38
2018-05-14T03:08:04.020Z,101126.83
2018-05-14T03:09:08.170Z,101129.09
2018-05-14T03:10:12.707Z,101120.67
2018-05-14T03:11:16.837Z,101126.19
2018-05-14T03:12:20.978Z,101128.94
2018-05-14T03:13:25.115Z,101125.88
2018-05-14T03:14:29.242Z,101124.15
2018-05-14T03:15:33.584Z,101134.50
2018-05-14T03:16:38.085Z,101127.70
2018-05-14T03:17:43.086Z,101128.63
2018-05-14T03:18:48.168Z,101125.88
2018-05-14T03:19:52.291Z,101134.06
2018-05-14T03:20:56.429Z,101130.45
2018-05-14T03:22:00.570Z,101139.98
2018-05-14T03:23:05.106Z,101134.89
2018-05-14T03:24:09.226Z,101134.91
2018-05-14T03:25:13.357Z,101137.13
2018-05-14T03:26:17.616Z,101142.09
2018-05-14T03:27:21.778Z,101141.78
2018-05-14T03:28:25.911Z,101141.53
2018-05-14T03:29:30.343Z,101140.60
2018-05-14T03:30:34.790Z,101139.70
2018-05-14T03:31:39.002Z,101143.49
2018-05-14T03:32:43.618Z,101146.61
2018-05-14T03:33:47.957Z,101143.52
2018-05-14T03:34:53.004Z,101143.62
2018-05-14T03:35:57.110Z,101149.00
2018-05-14T03:37:01.337Z,101145.95
2018-05-14T03:38:05.464Z,101147.80
2018-05-14T03:39:09.673Z,101147.34
2018-05-14T03:40:13.820Z,101148.77
2018-05-14T03:41:18.333Z,101146.45
2018-05-14T03:42:22.550Z,101143.79
2018-05-14T03:43:26.678Z,101152.27
2018-05-14T03:44:30.798Z,101145.49
2018-05-14T03:45:35.447Z,101151.22
2018-05-14T03:46:39.673Z,101149.05
2018-05-14T03:47:44.927Z,101154.36
2018-05-14T03:48:49.139Z,101156.03
2018-05-14T03:49:54.211Z,101148.80
2018-05-14T03:50:58.347Z,101148.64
2018-05-14T03:52:02.480Z,101151.14
2018-05-14T03:53:06.641Z,101149.41
2018-05-14T03:54:10.855Z,101155.23
2018-05-14T03:55:14.998Z,101153.41
2018-05-14T03:56:19.132Z,101154.61
2018-05-14T03:57:23.236Z,101156.94
2018-05-14T03:58:36.153Z,101157.52
2018-05-14T04:01:55.284Z,101155.94
2018-05-14T04:03:10.260Z,101155.93
2018-05-14T04:05:22.134Z,101163.56
2018-05-14T04:06:34.038Z,101162.94
2018-05-14T04:07:38.149Z,101165.42
2018-05-14T04:08:42.381Z,101171.14
2018-05-14T04:09:46.579Z,101171.01
2018-05-14T04:10:50.692Z,101174.89
2018-05-14T04:11:54.848Z,101178.88
2018-05-14T04:12:59.296Z,101170.20
2018-05-14T04:14:03.502Z,101177.73
2018-05-14T04:15:07.654Z,101174.84
2018-05-14T04:16:11.801Z,101177.59
2018-05-14T04:17:16.074Z,101172.80
2018-05-14T04:18:20.221Z,101177.46
2018-05-14T04:19:24.336Z,101177.66
2018-05-14T04:20:28.540Z,101177.28
2018-05-14T04:21:32.665Z,101175.96
2018-05-14T04:22:36.928Z,101182.28
2018-05-14T04:23:41.128Z,101174.57
2018-05-14T04:24:45.304Z,101176.41
2018-05-14T04:25:50.572Z,101175.54
2018-05-14T04:26:54.731Z,101176.51
2018-05-14T04:27:58.852Z,101175.98
2018-05-14T04:29:02.994Z,101178.57
2018-05-14T04:30:07.365Z,101176.60
2018-05-14T04:31:11.864Z,101174.82
2018-05-14T04:32:16.411Z,101180.66
2018-05-14T04:33:20.591Z,101178.81
2018-05-14T04:34:24.702Z,101175.73
2018-05-14T04:35:28.990Z,101172.05
2018-05-14T04:36:33.095Z,101180.37
2018-05-14T04:37:37.202Z,101181.09
2018-05-14T04:38:41.626Z,101182.11
2018-05-14T04:39:46.034Z,101186.20
2018-05-14T04:40:50.758Z,101182.20
2018-05-14T04:41:54.908Z,101178.52
2018-05-14T04:42:59.060Z,101186.48
2018-05-14T04:44:03.174Z,101177.88
2018-05-14T04:45:07.750Z,101185.77
2018-05-14T04:46:11.904Z,101179.92
2018-05-14T04:47:16.036Z,101184.96
2018-05-14T04:48:20.242Z,101175.50
2018-05-14T04:49:24.647Z,101181.03
2018-05-14T04:50:28.834Z,101179.43
2018-05-14T04:51:32.950Z,101180.95
2018-05-14T04:52:37.096Z,101172.09
2018-05-14T04:53:41.202Z,101187.27
2018-05-14T04:54:45.874Z,101180.66
2018-05-14T04:55:51.296Z,101176.91
2018-05-14T04:56:55.508Z,101179.20
2018-05-14T04:57:59.688Z,101187.20
2018-05-14T04:59:03.868Z,101180.00
2018-05-14T05:00:08.181Z,101183.59
2018-05-14T05:01:12.303Z,101185.90
2018-05-14T05:02:16.750Z,101186.16
2018-05-14T05:03:20.962Z,101188.27
2018-05-14T05:04:25.098Z,101189.55
2018-05-14T05:05:29.205Z,101191.66
2018-05-14T05:06:33.333Z,101190.91
2018-05-14T05:07:37.539Z,101194.71
2018-05-14T05:08:41.935Z,101194.12
2018-05-14T05:09:46.857Z,101197.13
2018-05-14T05:10:51.792Z,101199.14
2018-05-14T05:11:55.922Z,101197.36
2018-05-14T05:13:00.184Z,101204.38
2018-05-14T05:14:04.287Z,101198.33
2018-05-14T05:15:08.670Z,101203.75
2018-05-14T05:16:12.973Z,101205.83
2018-05-14T05:17:17.277Z,101199.72
2018-05-14T05:18:21.689Z,101204.06
2018-05-14T05:19:25.942Z,101201.63
2018-05-14T05:20:30.099Z,101201.66
2018-05-14T05:21:34.565Z,101205.27
2018-05-14T05:22:38.771Z,101194.51
2018-05-14T05:23:43.846Z,101201.13
2018-05-14T05:24:47.968Z,101201.66
2018-05-14T05:25:52.721Z,101200.91
2018-05-14T05:26:56.869Z,101198.64
2018-05-14T05:28:01.423Z,101198.25
2018-05-14T05:29:05.565Z,101198.61
2018-05-14T05:30:09.845Z,101194.73
2018-05-14T05:31:14.349Z,101196.30
2018-05-14T05:32:18.547Z,101194.91
2018-05-14T05:33:22.674Z,101193.77
2018-05-14T05:34:27.145Z,101191.96
2018-05-14T05:35:31.264Z,101191.55
2018-05-14T05:36:35.460Z,101197.20
2018-05-14T05:37:39.626Z,101192.45
2018-05-14T05:38:44.881Z,101198.30
2018-05-14T05:39:48.989Z,101193.42
2018-05-14T05:40:53.557Z,101199.53
2018-05-14T05:41:57.685Z,101199.53
2018-05-14T05:43:01.839Z,101203.02
2018-05-14T05:44:06.056Z,101199.64
2018-05-14T05:45:10.525Z,101205.31
2018-05-14T05:46:15.391Z,101209.08
2018-05-14T05:47:19.637Z,101209.23
2018-05-14T05:48:23.775Z,101212.44
2018-05-14T05:49:27.914Z,101208.40
2018-05-14T05:50:32.115Z,101211.45
2018-05-14T05:51:36.254Z,101207.20
2018-05-14T05:52:40.713Z,101203.39
2018-05-14T05:53:45.552Z,101210.19
2018-05-14T05:54:49.737Z,101210.91
2018-05-14T05:55:53.909Z,101212.45
2018-05-14T05:56:58.038Z,101214.03
2018-05-14T05:58:02.174Z,101203.24
2018-05-14T05:59:06.613Z,101204.32
2018-05-14T06:00:15.212Z,101214.50
2018-05-14T06:01:19.386Z,101222.20
2018-05-14T06:02:23.510Z,101215.13
2018-05-14T06:03:27.662Z,101223.83
2018-05-14T06:04:31.816Z,101223.06
2018-05-14T06:05:36.004Z,101216.13
2018-05-14T06:06:40.130Z,101219.44
2018-05-14T06:07:44.282Z,101232.59
2018-05-14T06:08:48.406Z,101222.02
2018-05-14T06:09:52.608Z,101228.27
2018-05-14T06:10:57.344Z,101227.80
2018-05-14T06:12:01.851Z,101233.13
2018-05-14T06:13:05.972Z,101226.52
2018-05-14T06:14:10.134Z,101232.24
2018-05-14T06:15:15.636Z,101232.77
2018-05-14T06:16:19.802Z,101239.02
2018-05-14T06:17:24.070Z,101236.27
2018-05-14T06:18:28.507Z,101231.05
2018-05-14T06:19:32.636Z,101235.37
2018-05-14T06:20:36.780Z,101232.12
2018-05-14T06:21:41.004Z,101233.26
2018-05-14T06:22:46.991Z,101232.14
2018-05-14T06:23:51.122Z,101235.94
2018-05-14T06:24:56.188Z,101242.91
2018-05-14T06:26:00.338Z,101237.64
2018-05-14T06:27:04.498Z,101247.27
2018-05-14T06:28:08.727Z,101248.88
2018-05-14T06:29:12.890Z,101241.69
2018-05-14T06:30:17.472Z,101247.47
2018-05-14T06:31:21.938Z,101242.85
2018-05-14T06:32:26.109Z,101253.17
2018-05-14T06:33:30.246Z,101248.23
2018-05-14T06:34:34.448Z,101246.77
2018-05-14T06:35:38.687Z,101248.97
2018-05-14T06:36:43.586Z,101251.63
2018-05-14T06:37:47.855Z,101254.64
2018-05-14T06:38:52.090Z,101253.13
2018-05-14T06:39:57.250Z,101254.88
2018-05-14T06:41:01.415Z,101256.33
2018-05-14T06:42:05.604Z,101260.56
2018-05-14T06:43:10.202Z,101260.08
2018-05-14T06:44:14.532Z,101254.97
2018-05-14T06:45:19.136Z,101249.22
2018-05-14T06:46:23.791Z,101253.27
2018-05-14T06:47:27.944Z,101252.00
2018-05-14T06:48:32.058Z,101262.93
2018-05-14T06:49:36.490Z,101256.87
2018-05-14T06:50:40.744Z,101258.84
2018-05-14T06:51:45.141Z,101252.92
2018-05-14T06:52:49.300Z,101265.94
2018-05-14T06:53:53.418Z,101255.52
2018-05-14T06:54:57.512Z,101249.76
2018-05-14T06:56:01.658Z,101255.57
2018-05-14T06:57:05.901Z,101260.28
2018-05-14T06:58:10.040Z,101260.63
2018-05-14T06:59:14.231Z,101255.55
2018-05-14T07:00:18.486Z,101257.53
2018-05-14T07:01:23.004Z,101254.30
2018-05-14T07:02:27.496Z,101253.72
2018-05-14T07:03:31.645Z,101258.08
2018-05-14T07:04:35.778Z,101252.17
2018-05-14T07:05:39.921Z,101255.58
2018-05-14T07:06:44.859Z,101258.88
2018-05-14T07:07:49.084Z,101260.39
2018-05-14T07:08:54.368Z,101257.31
2018-05-14T07:09:58.524Z,101257.06
2018-05-14T07:11:02.729Z,101260.91
2018-05-14T07:12:06.944Z,101259.62
2018-05-14T07:13:11.101Z,101260.41
2018-05-14T07:14:15.216Z,101265.52
2018-05-14T07:15:19.819Z,101265.91
2018-05-14T07:16:23.950Z,101264.41
2018-05-14T07:17:28.075Z,101264.06
2018-05-14T07:18:32.275Z,101263.82
2018-05-14T07:19:36.484Z,101264.83
2018-05-14T07:20:40.609Z,101266.97
2018-05-14T07:21:45.718Z,101267.79
2018-05-14T07:22:50.425Z,101268.17
2018-05-14T07:23:55.295Z,101263.31
2018-05-14T07:24:59.416Z,101261.64
2018-05-14T07:26:03.580Z,101269.08
2018-05-14T07:27:08.102Z,101266.16
2018-05-14T07:28:13.060Z,101266.43
2018-05-14T07:29:17.266Z,101266.20
2018-05-14T07:30:21.787Z,101272.98
2018-05-14T07:31:25.932Z,101274.66
2018-05-14T07:32:30.292Z,101268.52
2018-05-14T07:33:35.542Z,101269.77
2018-05-14T07:34:39.838Z,101277.31
2018-05-14T07:35:44.764Z,101273.52
2018-05-14T07:36:48.880Z,101274.77
2018-05-14T07:37:53.892Z,101280.14
2018-05-14T07:38:58.102Z,101276.81
2018-05-14T07:40:02.640Z,101277.80
2018-05-14T07:41:06.747Z,101274.16
2018-05-14T07:42:10.972Z,101275.15
2018-05-14T07:43:15.117Z,101274.39
2018-05-14T07:44:19.299Z,101280.45
2018-05-14T07:45:23.426Z,101279.80
2018-05-14T07:46:27.840Z,101275.20
2018-05-14T07:47:32.112Z,101283.36
2018-05-14T07:48:36.258Z,101275.48
2018-05-14T07:49:40.398Z,101282.88
2018-05-14T07:50:44.632Z,101279.91
2018-05-14T07:51:49.314Z,101288.47
2018-05-14T07:52:53.752Z,101281.43
2018-05-14T07:53:57.888Z,101283.89
2018-05-14T07:55:02.020Z,101283.20
2018-05-14T07:56:06.234Z,101284.60
2018-05-14T07:57:10.404Z,101284.60
2018-05-14T07:58:14.589Z,101285.53
2018-05-14T07:59:19.021Z,101289.69
2018-05-14T08:00:23.469Z,101291.58
2018-05-14T08:01:27.675Z,101290.39
2018-05-14T08:02:31.834Z,101292.25
2018-05-14T08:03:35.992Z,101288.88
2018-05-14T08:04:40.128Z,101297.87
2018-05-14T08:05:44.602Z,101294.34
2018-05-14T08:06:48.822Z,101290.78
2018-05-14T08:07:52.992Z,101287.53
2018-05-14T08:08:57.811Z,101292.66
2018-05-14T08:10:01.953Z,101297.17
2018-05-14T08:11:06.080Z,101297.87
2018-05-14T08:12:10.328Z,101294.81
2018-05-14T08:13:14.472Z,101294.03
2018-05-14T08:14:18.652Z,101294.25
2018-05-14T08:15:23.095Z,101302.08
2018-05-14T08:16:27.219Z,101302.02
2018-05-14T08:17:31.441Z,101300.66
2018-05-14T08:18:35.605Z,101297.50
2018-05-14T08:19:39.774Z,101292.29
2018-05-14T08:20:44.000Z,101296.14
2018-05-14T08:21:48.168Z,101293.16
2018-05-14T08:22:52.648Z,101297.09
2018-05-14T08:23:56.824Z,101291.28
2018-05-14T08:25:00.986Z,101285.17
2018-05-14T08:26:05.241Z,101295.08
2018-05-14T08:27:09.374Z,101296.09
2018-05-14T08:28:13.585Z,101295.16
2018-05-14T08:29:17.950Z,101284.41
2018-05-14T08:30:22.141Z,101288.84
2018-05-14T08:31:26.262Z,101284.96
2018-05-14T08:32:30.484Z,101290.34
2018-05-14T08:33:34.704Z,101284.92
2018-05-14T08:34:39.199Z,101292.09
2018-05-14T08:35:43.341Z,101286.68
2018-05-14T08:36:47.571Z,101290.16
2018-05-14T08:37:51.714Z,101286.97
2018-05-14T08:38:55.844Z,101292.52
2018-05-14T08:40:00.099Z,101287.29
2018-05-14T08:41:04.551Z,101293.58
2018-05-14T08:42:08.685Z,101291.37
2018-05-14T08:43:12.911Z,101293.79
2018-05-14T08:44:17.036Z,101282.00
2018-05-14T08:45:21.238Z,101295.90
2018-05-14T08:46:25.842Z,101285.94
2018-05-14T08:47:30.441Z,101290.09
2018-05-14T08:48:34.545Z,101294.17
2018-05-14T08:49:38.933Z,101291.58
2018-05-14T08:50:42.967Z,101296.67
2018-05-14T08:51:48.027Z,101290.05
2018-05-14T08:52:52.814Z,101292.49
2018-05-14T08:53:56.960Z,101294.42
2018-05-14T08:55:01.105Z,101289.19
2018-05-14T08:56:05.333Z,101294.48
2018-05-14T08:57:09.785Z,101292.59
2018-05-14T08:58:13.914Z,101295.19
2018-05-14T08:59:18.036Z,101301.30
2018-05-14T09:00:22.230Z,101291.06
2018-05-14T09:01:26.447Z,101291.43
2018-05-14T09:02:30.686Z,101303.20
2018-05-14T09:03:35.143Z,101294.87
2018-05-14T09:04:39.270Z,101299.13
2018-05-14T09:05:43.426Z,101301.52
2018-05-14T09:06:47.646Z,101298.78
2018-05-14T09:07:51.813Z,101297.25
2018-05-14T09:08:56.021Z,101303.30
2018-05-14T09:10:00.477Z,101304.03
2018-05-14T09:11:04.680Z,101306.30
2018-05-14T09:12:08.818Z,101308.14
2018-05-14T09:13:12.969Z,101302.03
2018-05-14T09:14:17.128Z,101311.63
2018-05-14T09:15:21.367Z,101305.44
2018-05-14T09:16:25.802Z,101307.09
2018-05-14T09:17:29.935Z,101298.70
2018-05-14T09:18:34.089Z,101308.00
2018-05-14T09:19:38.252Z,101308.03
2018-05-14T09:20:42.498Z,101306.98
2018-05-14T09:21:46.759Z,101303.91
2018-05-14T09:22:50.889Z,101302.47
2018-05-14T09:23:55.024Z,101303.70
2018-05-14T09:24:59.189Z,101306.94
2018-05-14T09:26:03.374Z,101306.96
2018-05-14T09:27:07.818Z,101308.74
2018-05-14T09:28:11.930Z,101306.36
2018-05-14T09:29:16.136Z,101303.53
2018-05-14T09:30:20.444Z,101312.50
2018-05-14T09:31:25.014Z,101305.20
2018-05-14T09:32:29.568Z,101307.89
2018-05-14T09:33:35.715Z,101307.50
2018-05-14T09:34:40.084Z,101306.98
2018-05-14T09:35:44.368Z,101303.92
2018-05-14T09:36:48.747Z,101308.01
2018-05-14T09:37:53.964Z,101303.09
2018-05-14T09:38:59.002Z,101302.00
2018-05-14T09:40:03.526Z,101308.19
2018-05-14T09:41:07.742Z,101301.61
2018-05-14T09:42:11.848Z,101304.47
2018-05-14T09:43:16.071Z,101305.34
2018-05-14T09:44:20.282Z,101304.16
2018-05-14T09:45:24.604Z,101295.33
2018-05-14T09:46:29.382Z,101302.55
2018-05-14T09:47:33.533Z,101303.13
2018-05-14T09:48:37.766Z,101300.58
2018-05-14T09:49:41.957Z,101302.59
2018-05-14T09:50:46.060Z,101306.00
2018-05-14T09:51:50.734Z,101302.75
2018-05-14T09:52:54.860Z,101299.25
2018-05-14T09:53:59.121Z,101295.80
2018-05-14T09:55:03.316Z,101303.45
2018-05-14T09:56:07.439Z,101298.30
2018-05-14T09:57:11.802Z,101301.98
2018-05-14T09:58:15.918Z,101300.56
2018-05-14T09:59:20.422Z,101299.50
2018-05-14T10:00:24.907Z,101298.36
2018-05-14T10:01:29.010Z,101296.20
2018-05-14T10:02:33.122Z,101300.42
2018-05-14T10:03:37.336Z,101302.27
2018-05-14T10:04:41.558Z,101303.30
2018-05-14T10:05:46.005Z,101302.63
2018-05-14T10:06:50.269Z,101296.86
2018-05-14T10:07:55.401Z,101296.52
2018-05-14T10:08:59.540Z,101303.15
2018-05-14T10:10:03.798Z,101302.47
2018-05-14T10:11:07.952Z,101300.38
2018-05-14T10:12:12.468Z,101302.13
2018-05-14T10:13:16.649Z,101302.02
2018-05-14T10:14:20.783Z,101303.67
2018-05-14T10:15:25.266Z,101308.73
2018-05-14T10:16:29.524Z,101291.83
2018-05-14T10:17:34.050Z,101302.11
2018-05-14T10:18:38.847Z,101304.80
2018-05-14T10:19:43.166Z,101301.63
2018-05-14T10:20:47.564Z,101299.20
2018-05-14T10:21:52.271Z,101299.62
2018-05-14T10:22:57.524Z,101298.47
2018-05-14T10:24:01.804Z,101304.48
2018-05-14T10:25:06.264Z,101289.56
2018-05-14T10:26:10.400Z,101296.34
2018-05-14T10:27:14.542Z,101291.48
2018-05-14T10:28:18.669Z,101290.76
2018-05-14T10:29:22.858Z,101287.63
2018-05-14T10:30:27.266Z,101300.28
2018-05-14T10:31:31.730Z,101291.37
2018-05-14T10:32:35.856Z,101292.97
2018-05-14T10:33:40.116Z,101296.72
2018-05-14T10:34:44.348Z,101284.34
2018-05-14T10:35:48.497Z,101293.30
2018-05-14T10:36:52.647Z,101294.95
2018-05-14T10:37:56.803Z,101299.62
2018-05-14T10:39:00.916Z,101296.50
2018-05-14T10:40:05.684Z,101294.00
2018-05-14T10:41:09.898Z,101292.89
2018-05-14T10:42:14.016Z,101291.03
2018-05-14T10:43:18.448Z,101291.82
2018-05-14T10:44:22.652Z,101292.34
2018-05-14T10:45:27.372Z,101289.86
2018-05-14T10:46:31.604Z,101282.45
2018-05-14T10:47:49.704Z,101286.41
2018-05-14T10:48:55.846Z,101294.90
2018-05-14T10:50:01.042Z,101289.45
2018-05-14T10:51:05.926Z,101291.41
2018-05-14T10:52:10.092Z,101292.67
2018-05-14T10:53:14.209Z,101292.34
2018-05-14T10:54:19.221Z,101288.68
2018-05-14T10:55:23.994Z,101293.72
2018-05-14T10:56:28.146Z,101289.84
2018-05-14T10:57:32.443Z,101291.50
2018-05-14T10:58:36.713Z,101288.55
2018-05-14T10:59:40.838Z,101295.70
2018-05-14T11:00:45.133Z,101288.08
2018-05-14T11:01:49.592Z,101293.85
2018-05-14T11:02:53.811Z,101294.91
2018-05-14T11:03:58.637Z,101300.48
2018-05-14T11:05:04.421Z,101294.69
2018-05-14T11:06:08.646Z,101296.99
2018-05-14T11:07:13.461Z,101292.04
2018-05-14T11:08:17.696Z,101282.31
2018-05-14T11:09:21.881Z,101288.79
2018-05-14T11:10:26.046Z,101285.05
2018-05-14T11:11:30.215Z,101293.16
2018-05-14T11:12:34.416Z,101294.80
2018-05-14T11:13:38.578Z,101289.44
2018-05-14T11:14:43.064Z,101295.16
2018-05-14T11:15:47.526Z,101286.25
2018-05-14T11:16:52.181Z,101299.27
2018-05-14T11:17:57.444Z,101299.95
2018-05-14T11:19:02.014Z,101291.70
2018-05-14T11:20:06.161Z,101285.38
2018-05-14T11:21:10.612Z,101296.47
2018-05-14T11:22:14.872Z,101294.22
2018-05-14T11:23:19.102Z,101288.23
2018-05-14T11:24:23.242Z,101293.00
2018-05-14T11:25:27.508Z,101289.20
2018-05-14T11:26:31.643Z,101289.56
2018-05-14T11:27:36.177Z,101293.42
2018-05-14T11:28:40.317Z,101289.23
2018-05-14T11:29:44.601Z,101281.67
2018-05-14T11:30:48.972Z,101279.34
2018-05-14T11:31:53.514Z,101284.86
2018-05-14T11:32:57.718Z,101282.77
2018-05-14T11:34:02.880Z,101273.61
2018-05-14T11:35:07.686Z,101282.26
2018-05-14T11:36:11.884Z,101280.01
2018-05-14T11:37:16.008Z,101284.20
2018-05-14T11:38:20.198Z,101289.47
2018-05-14T11:39:24.411Z,101293.19
2018-05-14T11:40:28.581Z,101286.44
2018-05-14T11:41:32.795Z,101287.97
2018-05-14T11:42:36.940Z,101281.08
2018-05-14T11:43:41.512Z,101282.47
2018-05-14T11:44:45.707Z,101282.20
2018-05-14T11:45:49.868Z,101282.64
2018-05-14T11:46:54.012Z,101289.47
2018-05-14T11:47:58.146Z,101280.91
2018-05-14T11:49:03.149Z,101284.64
2018-05-14T11:50:07.650Z,101281.54
2018-05-14T11:51:11.874Z,101263.91
2018-05-14T11:53:16.442Z,101279.69
2018-05-14T11:54:21.319Z,101283.17
2018-05-14T11:55:26.440Z,101286.86
2018-05-14T11:56:31.003Z,101279.54
2018-05-14T11:57:35.193Z,101294.23
2018-05-14T11:58:39.317Z,101290.20
2018-05-14T11:59:43.563Z,101287.72
2018-05-14T12:00:47.893Z,101288.45
2018-05-14T12:01:52.166Z,101290.80
2018-05-14T12:02:56.574Z,101282.68
2018-05-14T12:04:01.257Z,101284.87
2018-05-14T12:05:05.380Z,101292.84
2018-05-14T12:06:09.527Z,101283.83
2018-05-14T12:07:13.763Z,101287.23
2018-05-14T12:08:17.905Z,101286.48
2018-05-14T12:09:22.350Z,101284.27
2018-05-14T12:10:26.494Z,101289.35
2018-05-14T12:11:30.730Z,101282.68
2018-05-14T12:12:34.892Z,101284.55
2018-05-14T12:13:39.008Z,101286.45
2018-05-14T12:14:43.221Z,101289.20
2018-05-14T12:15:47.921Z,101291.41
2018-05-14T12:16:52.184Z,101285.52
2018-05-14T12:17:56.777Z,101284.02
2018-05-14T12:19:00.942Z,101285.74
2018-05-14T12:20:05.102Z,101289.80